sensor_id;sensor_type;location;lat;lon;timestamp;P1;durP1;ratioP1;P2;durP2;ratioP2
29550;SDS011;16488;52.396;10.696;2023-05-02T00:00:35;7.68;;;3.10;;
29550;SDS011;16488;52.396;10.696;2023-05-02T00:03:01;8.35;;;3.15;;
29550;SDS011;16488;52.396;10.696;2023-05-02T00:05:29;6.32;;;2.55;;
29550;SDS011;16488;52.396;10.696;2023-05-02T00:07:55;6.03;;;2.88;;
29550;SDS011;16488;52.396;10.696;2023-05-02T00:10:20;5.65;;;2.95;;
29550;SDS011;16488;52.396;10.696;2023-05-02T00:12:46;7.00;;;2.95;;
29550;SDS011;16488;52.396;10.696;2023-05-02T00:15:12;7.10;;;3.30;;
29550;SDS011;16488;52.396;10.696;2023-05-02T00:17:40;4.70;;;3.03;;
29550;SDS011;16488;52.396;10.696;2023-05-02T00:20:07;6.38;;;2.90;;
29550;SDS011;16488;52.396;10.696;2023-05-02T00:22:34;6.95;;;3.40;;
29550;SDS011;16488;52.396;10.696;2023-05-02T00:24:59;5.85;;;3.38;;
29550;SDS011;16488;52.396;10.696;2023-05-02T00:27:25;6.22;;;3.35;;
29550;SDS011;16488;52.396;10.696;2023-05-02T00:29:52;10.82;;;2.90;;
29550;SDS011;16488;52.396;10.696;2023-05-02T00:32:18;5.82;;;3.83;;
29550;SDS011;16488;52.396;10.696;2023-05-02T00:34:43;8.07;;;3.63;;
29550;SDS011;16488;52.396;10.696;2023-05-02T00:37:09;5.88;;;3.17;;
29550;SDS011;16488;52.396;10.696;2023-05-02T00:39:35;10.00;;;3.57;;
29550;SDS011;16488;52.396;10.696;2023-05-02T00:42:00;7.18;;;3.78;;
29550;SDS011;16488;52.396;10.696;2023-05-02T00:44:27;4.20;;;3.22;;
29550;SDS011;16488;52.396;10.696;2023-05-02T00:46:53;7.07;;;3.70;;
29550;SDS011;16488;52.396;10.696;2023-05-02T00:49:20;9.20;;;3.78;;
29550;SDS011;16488;52.396;10.696;2023-05-02T00:51:46;11.18;;;3.95;;
29550;SDS011;16488;52.396;10.696;2023-05-02T00:54:12;4.57;;;3.83;;
29550;SDS011;16488;52.396;10.696;2023-05-02T00:59:03;12.13;;;5.03;;
29550;SDS011;16488;52.396;10.696;2023-05-02T01:04:35;7.93;;;4.30;;
29550;SDS011;16488;52.396;10.696;2023-05-02T01:07:17;9.98;;;4.75;;
29550;SDS011;16488;52.396;10.696;2023-05-02T01:12:47;6.85;;;3.85;;
29550;SDS011;16488;52.396;10.696;2023-05-02T01:15:27;13.80;;;4.80;;
29550;SDS011;16488;52.396;10.696;2023-05-02T01:17:53;9.20;;;4.97;;
29550;SDS011;16488;52.396;10.696;2023-05-02T01:20:20;7.32;;;4.70;;
29550;SDS011;16488;52.396;10.696;2023-05-02T01:22:51;14.93;;;5.28;;
29550;SDS011;16488;52.396;10.696;2023-05-02T01:25:24;8.25;;;4.55;;
29550;SDS011;16488;52.396;10.696;2023-05-02T01:30:29;7.38;;;3.85;;
29550;SDS011;16488;52.396;10.696;2023-05-02T01:32:57;10.32;;;4.90;;
29550;SDS011;16488;52.396;10.696;2023-05-02T01:35:25;10.10;;;4.75;;
29550;SDS011;16488;52.396;10.696;2023-05-02T01:40:19;12.68;;;4.90;;
29550;SDS011;16488;52.396;10.696;2023-05-02T01:42:47;7.95;;;4.47;;
29550;SDS011;16488;52.396;10.696;2023-05-02T01:45:15;9.30;;;5.15;;
29550;SDS011;16488;52.396;10.696;2023-05-02T01:47:41;7.70;;;4.50;;
29550;SDS011;16488;52.396;10.696;2023-05-02T01:50:10;10.13;;;5.03;;
29550;SDS011;16488;52.396;10.696;2023-05-02T01:52:40;8.80;;;4.53;;
29550;SDS011;16488;52.396;10.696;2023-05-02T01:55:08;8.73;;;4.15;;
29550;SDS011;16488;52.396;10.696;2023-05-02T01:57:38;13.50;;;4.22;;
29550;SDS011;16488;52.396;10.696;2023-05-02T02:00:05;9.27;;;4.60;;
29550;SDS011;16488;52.396;10.696;2023-05-02T02:02:33;12.32;;;5.15;;
29550;SDS011;16488;52.396;10.696;2023-05-02T02:05:00;8.90;;;4.22;;
29550;SDS011;16488;52.396;10.696;2023-05-02T02:07:28;7.07;;;3.58;;
29550;SDS011;16488;52.396;10.696;2023-05-02T02:09:54;6.30;;;4.35;;
29550;SDS011;16488;52.396;10.696;2023-05-02T02:12:26;7.78;;;4.20;;
29550;SDS011;16488;52.396;10.696;2023-05-02T02:14:58;9.43;;;4.22;;
29550;SDS011;16488;52.396;10.696;2023-05-02T02:17:31;10.80;;;4.10;;
29550;SDS011;16488;52.396;10.696;2023-05-02T02:20:02;9.15;;;4.40;;
29550;SDS011;16488;52.396;10.696;2023-05-02T02:22:32;7.35;;;4.53;;
29550;SDS011;16488;52.396;10.696;2023-05-02T02:25:01;10.50;;;4.03;;
29550;SDS011;16488;52.396;10.696;2023-05-02T02:27:30;10.02;;;4.35;;
29550;SDS011;16488;52.396;10.696;2023-05-02T02:29:56;11.27;;;5.30;;
29550;SDS011;16488;52.396;10.696;2023-05-02T02:32:21;11.77;;;4.75;;
29550;SDS011;16488;52.396;10.696;2023-05-02T02:34:48;8.68;;;4.28;;
29550;SDS011;16488;52.396;10.696;2023-05-02T02:37:18;6.25;;;4.03;;
29550;SDS011;16488;52.396;10.696;2023-05-02T02:42:38;9.40;;;5.15;;
29550;SDS011;16488;52.396;10.696;2023-05-02T02:45:33;10.70;;;4.60;;
29550;SDS011;16488;52.396;10.696;2023-05-02T02:48:18;9.82;;;4.95;;
29550;SDS011;16488;52.396;10.696;2023-05-02T02:53:32;10.45;;;6.32;;
29550;SDS011;16488;52.396;10.696;2023-05-02T02:56:25;16.55;;;6.28;;
29550;SDS011;16488;52.396;10.696;2023-05-02T02:58:59;14.52;;;6.63;;
29550;SDS011;16488;52.396;10.696;2023-05-02T03:01:32;14.57;;;7.57;;
29550;SDS011;16488;52.396;10.696;2023-05-02T03:04:00;15.88;;;6.97;;
29550;SDS011;16488;52.396;10.696;2023-05-02T03:06:29;12.77;;;7.60;;
29550;SDS011;16488;52.396;10.696;2023-05-02T03:08:55;10.32;;;6.95;;
29550;SDS011;16488;52.396;10.696;2023-05-02T03:11:21;16.60;;;6.77;;
29550;SDS011;16488;52.396;10.696;2023-05-02T03:13:46;9.63;;;6.07;;
29550;SDS011;16488;52.396;10.696;2023-05-02T03:18:56;11.82;;;5.90;;
29550;SDS011;16488;52.396;10.696;2023-05-02T03:21:22;13.02;;;6.43;;
29550;SDS011;16488;52.396;10.696;2023-05-02T03:23:47;14.70;;;5.78;;
29550;SDS011;16488;52.396;10.696;2023-05-02T03:26:13;12.73;;;6.25;;
29550;SDS011;16488;52.396;10.696;2023-05-02T03:28:38;10.57;;;5.50;;
29550;SDS011;16488;52.396;10.696;2023-05-02T03:31:04;12.35;;;5.57;;
29550;SDS011;16488;52.396;10.696;2023-05-02T03:33:30;10.50;;;5.90;;
29550;SDS011;16488;52.396;10.696;2023-05-02T03:35:56;11.18;;;6.25;;
29550;SDS011;16488;52.396;10.696;2023-05-02T03:38:22;14.90;;;7.13;;
29550;SDS011;16488;52.396;10.696;2023-05-02T03:40:48;15.75;;;6.78;;
29550;SDS011;16488;52.396;10.696;2023-05-02T03:43:13;14.35;;;6.93;;
29550;SDS011;16488;52.396;10.696;2023-05-02T03:45:39;14.35;;;7.75;;
29550;SDS011;16488;52.396;10.696;2023-05-02T03:48:04;23.33;;;10.15;;
29550;SDS011;16488;52.396;10.696;2023-05-02T03:50:30;19.45;;;10.65;;
29550;SDS011;16488;52.396;10.696;2023-05-02T03:52:56;17.58;;;11.27;;
29550;SDS011;16488;52.396;10.696;2023-05-02T03:55:22;24.80;;;12.95;;
29550;SDS011;16488;52.396;10.696;2023-05-02T03:57:47;22.33;;;13.43;;
29550;SDS011;16488;52.396;10.696;2023-05-02T04:00:13;24.83;;;14.27;;
29550;SDS011;16488;52.396;10.696;2023-05-02T04:02:39;25.92;;;15.35;;
29550;SDS011;16488;52.396;10.696;2023-05-02T04:05:04;27.00;;;14.82;;
29550;SDS011;16488;52.396;10.696;2023-05-02T04:07:30;27.70;;;15.90;;
29550;SDS011;16488;52.396;10.696;2023-05-02T04:09:56;30.87;;;16.10;;
29550;SDS011;16488;52.396;10.696;2023-05-02T04:12:21;31.60;;;18.30;;
29550;SDS011;16488;52.396;10.696;2023-05-02T04:14:47;33.70;;;18.60;;
29550;SDS011;16488;52.396;10.696;2023-05-02T04:17:13;35.37;;;18.50;;
29550;SDS011;16488;52.396;10.696;2023-05-02T04:19:39;40.35;;;19.75;;
29550;SDS011;16488;52.396;10.696;2023-05-02T04:22:05;42.95;;;20.38;;
29550;SDS011;16488;52.396;10.696;2023-05-02T04:24:31;40.10;;;19.13;;
29550;SDS011;16488;52.396;10.696;2023-05-02T04:26:56;40.77;;;20.13;;
29550;SDS011;16488;52.396;10.696;2023-05-02T04:29:22;39.33;;;22.53;;
29550;SDS011;16488;52.396;10.696;2023-05-02T04:31:47;42.92;;;22.83;;
29550;SDS011;16488;52.396;10.696;2023-05-02T04:34:14;38.15;;;21.80;;
29550;SDS011;16488;52.396;10.696;2023-05-02T04:36:40;36.37;;;22.27;;
29550;SDS011;16488;52.396;10.696;2023-05-02T04:39:05;36.47;;;21.33;;
29550;SDS011;16488;52.396;10.696;2023-05-02T04:41:32;36.92;;;20.92;;
29550;SDS011;16488;52.396;10.696;2023-05-02T04:43:58;35.35;;;19.88;;
29550;SDS011;16488;52.396;10.696;2023-05-02T04:46:23;37.37;;;19.63;;
29550;SDS011;16488;52.396;10.696;2023-05-02T04:48:49;41.25;;;23.75;;
29550;SDS011;16488;52.396;10.696;2023-05-02T04:51:16;37.58;;;21.67;;
29550;SDS011;16488;52.396;10.696;2023-05-02T04:53:41;35.25;;;21.05;;
29550;SDS011;16488;52.396;10.696;2023-05-02T04:56:07;38.57;;;22.73;;
29550;SDS011;16488;52.396;10.696;2023-05-02T04:58:32;41.15;;;22.73;;
29550;SDS011;16488;52.396;10.696;2023-05-02T05:00:59;42.97;;;22.65;;
29550;SDS011;16488;52.396;10.696;2023-05-02T05:03:26;38.35;;;22.10;;
29550;SDS011;16488;52.396;10.696;2023-05-02T05:05:53;43.83;;;22.33;;
29550;SDS011;16488;52.396;10.696;2023-05-02T05:08:19;41.53;;;23.02;;
29550;SDS011;16488;52.396;10.696;2023-05-02T05:10:45;45.45;;;23.52;;
29550;SDS011;16488;52.396;10.696;2023-05-02T05:13:10;36.03;;;21.63;;
29550;SDS011;16488;52.396;10.696;2023-05-02T05:15:37;44.95;;;24.10;;
29550;SDS011;16488;52.396;10.696;2023-05-02T05:18:04;42.00;;;23.02;;
29550;SDS011;16488;52.396;10.696;2023-05-02T05:20:29;48.33;;;25.80;;
29550;SDS011;16488;52.396;10.696;2023-05-02T05:22:55;44.07;;;21.60;;
29550;SDS011;16488;52.396;10.696;2023-05-02T05:25:21;42.58;;;22.48;;
29550;SDS011;16488;52.396;10.696;2023-05-02T05:27:46;43.23;;;24.03;;
29550;SDS011;16488;52.396;10.696;2023-05-02T05:30:12;42.43;;;23.73;;
29550;SDS011;16488;52.396;10.696;2023-05-02T05:32:37;48.15;;;25.45;;
29550;SDS011;16488;52.396;10.696;2023-05-02T05:35:03;49.03;;;25.65;;
29550;SDS011;16488;52.396;10.696;2023-05-02T05:37:29;49.45;;;25.88;;
29550;SDS011;16488;52.396;10.696;2023-05-02T05:39:55;52.25;;;26.10;;
29550;SDS011;16488;52.396;10.696;2023-05-02T05:42:20;50.63;;;27.40;;
29550;SDS011;16488;52.396;10.696;2023-05-02T05:44:46;49.65;;;25.23;;
29550;SDS011;16488;52.396;10.696;2023-05-02T05:47:11;50.17;;;25.67;;
29550;SDS011;16488;52.396;10.696;2023-05-02T05:49:42;51.25;;;27.90;;
29550;SDS011;16488;52.396;10.696;2023-05-02T05:52:08;48.40;;;26.23;;
29550;SDS011;16488;52.396;10.696;2023-05-02T05:54:33;51.83;;;27.50;;
29550;SDS011;16488;52.396;10.696;2023-05-02T05:56:59;56.25;;;29.35;;
29550;SDS011;16488;52.396;10.696;2023-05-02T05:59:25;55.03;;;27.00;;
29550;SDS011;16488;52.396;10.696;2023-05-02T06:01:51;55.05;;;28.90;;
29550;SDS011;16488;52.396;10.696;2023-05-02T06:04:18;59.28;;;28.55;;
29550;SDS011;16488;52.396;10.696;2023-05-02T06:06:43;57.07;;;28.30;;
29550;SDS011;16488;52.396;10.696;2023-05-02T06:09:09;51.87;;;26.83;;
29550;SDS011;16488;52.396;10.696;2023-05-02T06:11:35;48.63;;;25.45;;
29550;SDS011;16488;52.396;10.696;2023-05-02T06:14:02;39.78;;;21.27;;
29550;SDS011;16488;52.396;10.696;2023-05-02T06:16:27;35.78;;;18.88;;
29550;SDS011;16488;52.396;10.696;2023-05-02T06:18:53;38.03;;;19.63;;
29550;SDS011;16488;52.396;10.696;2023-05-02T06:21:18;29.20;;;15.63;;
29550;SDS011;16488;52.396;10.696;2023-05-02T06:23:44;24.55;;;14.02;;
29550;SDS011;16488;52.396;10.696;2023-05-02T06:26:10;21.52;;;10.98;;
29550;SDS011;16488;52.396;10.696;2023-05-02T06:28:36;17.40;;;10.25;;
29550;SDS011;16488;52.396;10.696;2023-05-02T06:31:03;14.80;;;8.10;;
29550;SDS011;16488;52.396;10.696;2023-05-02T06:33:30;13.18;;;7.05;;
29550;SDS011;16488;52.396;10.696;2023-05-02T06:35:57;11.13;;;6.43;;
29550;SDS011;16488;52.396;10.696;2023-05-02T06:40:49;8.73;;;3.70;;
29550;SDS011;16488;52.396;10.696;2023-05-02T06:45:41;5.40;;;3.10;;
29550;SDS011;16488;52.396;10.696;2023-05-02T06:48:07;6.05;;;3.08;;
29550;SDS011;16488;52.396;10.696;2023-05-02T06:50:33;4.40;;;1.92;;
29550;SDS011;16488;52.396;10.696;2023-05-02T06:52:59;2.78;;;1.92;;
29550;SDS011;16488;52.396;10.696;2023-05-02T06:55:25;4.32;;;2.38;;
29550;SDS011;16488;52.396;10.696;2023-05-02T06:57:51;4.35;;;2.70;;
29550;SDS011;16488;52.396;10.696;2023-05-02T07:00:18;5.38;;;2.40;;
29550;SDS011;16488;52.396;10.696;2023-05-02T07:02:44;6.35;;;2.10;;
29550;SDS011;16488;52.396;10.696;2023-05-02T07:05:11;5.35;;;2.13;;
29550;SDS011;16488;52.396;10.696;2023-05-02T07:07:37;5.05;;;2.42;;
29550;SDS011;16488;52.396;10.696;2023-05-02T07:10:03;10.80;;;2.47;;
29550;SDS011;16488;52.396;10.696;2023-05-02T07:12:29;7.30;;;2.35;;
29550;SDS011;16488;52.396;10.696;2023-05-02T07:14:54;6.07;;;2.58;;
29550;SDS011;16488;52.396;10.696;2023-05-02T07:17:20;5.20;;;2.72;;
29550;SDS011;16488;52.396;10.696;2023-05-02T07:19:46;7.57;;;2.95;;
29550;SDS011;16488;52.396;10.696;2023-05-02T07:22:12;7.50;;;3.10;;
29550;SDS011;16488;52.396;10.696;2023-05-02T07:24:41;10.38;;;3.60;;
29550;SDS011;16488;52.396;10.696;2023-05-02T07:27:10;10.32;;;3.42;;
29550;SDS011;16488;52.396;10.696;2023-05-02T07:29:37;9.93;;;4.57;;
29550;SDS011;16488;52.396;10.696;2023-05-02T07:32:03;12.13;;;4.55;;
29550;SDS011;16488;52.396;10.696;2023-05-02T07:34:29;11.93;;;3.58;;
29550;SDS011;16488;52.396;10.696;2023-05-02T07:36:56;15.18;;;4.72;;
29550;SDS011;16488;52.396;10.696;2023-05-02T07:39:22;7.05;;;3.55;;
29550;SDS011;16488;52.396;10.696;2023-05-02T07:41:52;9.30;;;3.85;;
29550;SDS011;16488;52.396;10.696;2023-05-02T07:44:18;13.82;;;4.32;;
29550;SDS011;16488;52.396;10.696;2023-05-02T07:46:45;16.50;;;4.75;;
29550;SDS011;16488;52.396;10.696;2023-05-02T07:49:11;12.07;;;3.78;;
29550;SDS011;16488;52.396;10.696;2023-05-02T07:51:37;17.83;;;3.83;;
29550;SDS011;16488;52.396;10.696;2023-05-02T07:56:41;13.07;;;4.00;;
29550;SDS011;16488;52.396;10.696;2023-05-02T07:59:07;21.48;;;3.92;;
29550;SDS011;16488;52.396;10.696;2023-05-02T08:01:33;18.15;;;4.30;;
29550;SDS011;16488;52.396;10.696;2023-05-02T08:03:59;10.50;;;4.00;;
29550;SDS011;16488;52.396;10.696;2023-05-02T08:06:25;11.00;;;3.87;;
29550;SDS011;16488;52.396;10.696;2023-05-02T08:08:50;21.07;;;4.13;;
29550;SDS011;16488;52.396;10.696;2023-05-02T08:11:16;16.67;;;4.13;;
29550;SDS011;16488;52.396;10.696;2023-05-02T08:13:42;20.02;;;4.80;;
29550;SDS011;16488;52.396;10.696;2023-05-02T08:16:07;14.55;;;4.65;;
29550;SDS011;16488;52.396;10.696;2023-05-02T08:18:33;14.07;;;5.00;;
29550;SDS011;16488;52.396;10.696;2023-05-02T08:20:58;17.30;;;5.35;;
29550;SDS011;16488;52.396;10.696;2023-05-02T08:23:24;31.57;;;6.03;;
29550;SDS011;16488;52.396;10.696;2023-05-02T08:25:50;17.25;;;5.07;;
29550;SDS011;16488;52.396;10.696;2023-05-02T08:28:15;24.92;;;5.68;;
29550;SDS011;16488;52.396;10.696;2023-05-02T08:30:42;18.48;;;5.20;;
29550;SDS011;16488;52.396;10.696;2023-05-02T08:33:09;16.80;;;5.00;;
29550;SDS011;16488;52.396;10.696;2023-05-02T08:35:34;17.67;;;5.10;;
29550;SDS011;16488;52.396;10.696;2023-05-02T08:38:00;15.20;;;5.25;;
29550;SDS011;16488;52.396;10.696;2023-05-02T08:40:26;22.58;;;6.13;;
29550;SDS011;16488;52.396;10.696;2023-05-02T08:42:51;11.32;;;3.65;;
29550;SDS011;16488;52.396;10.696;2023-05-02T08:45:19;15.27;;;4.22;;
29550;SDS011;16488;52.396;10.696;2023-05-02T08:47:46;13.32;;;4.38;;
29550;SDS011;16488;52.396;10.696;2023-05-02T08:50:14;15.90;;;4.35;;
29550;SDS011;16488;52.396;10.696;2023-05-02T08:52:41;18.15;;;4.15;;
29550;SDS011;16488;52.396;10.696;2023-05-02T08:55:09;15.30;;;3.95;;
29550;SDS011;16488;52.396;10.696;2023-05-02T08:57:36;18.70;;;4.63;;
29550;SDS011;16488;52.396;10.696;2023-05-02T09:00:04;20.08;;;4.20;;
29550;SDS011;16488;52.396;10.696;2023-05-02T09:05:21;16.63;;;3.78;;
29550;SDS011;16488;52.396;10.696;2023-05-02T09:07:49;16.75;;;4.75;;
29550;SDS011;16488;52.396;10.696;2023-05-02T09:10:16;18.52;;;4.40;;
29550;SDS011;16488;52.396;10.696;2023-05-02T09:12:42;15.60;;;4.40;;
29550;SDS011;16488;52.396;10.696;2023-05-02T09:15:11;19.65;;;5.35;;
29550;SDS011;16488;52.396;10.696;2023-05-02T09:17:42;24.08;;;4.72;;
29550;SDS011;16488;52.396;10.696;2023-05-02T09:20:09;21.73;;;5.03;;
29550;SDS011;16488;52.396;10.696;2023-05-02T09:22:36;14.73;;;4.50;;
29550;SDS011;16488;52.396;10.696;2023-05-02T09:25:03;17.05;;;4.13;;
29550;SDS011;16488;52.396;10.696;2023-05-02T09:30:33;12.02;;;3.50;;
29550;SDS011;16488;52.396;10.696;2023-05-02T09:32:59;14.77;;;4.20;;
29550;SDS011;16488;52.396;10.696;2023-05-02T09:35:25;26.88;;;5.60;;
29550;SDS011;16488;52.396;10.696;2023-05-02T09:37:54;22.23;;;5.85;;
29550;SDS011;16488;52.396;10.696;2023-05-02T09:40:21;25.73;;;4.85;;
29550;SDS011;16488;52.396;10.696;2023-05-02T09:42:48;15.15;;;4.03;;
29550;SDS011;16488;52.396;10.696;2023-05-02T09:45:21;17.55;;;4.38;;
29550;SDS011;16488;52.396;10.696;2023-05-02T09:47:48;20.75;;;4.05;;
29550;SDS011;16488;52.396;10.696;2023-05-02T09:53:00;16.90;;;3.38;;
29550;SDS011;16488;52.396;10.696;2023-05-02T09:55:26;10.05;;;3.70;;
29550;SDS011;16488;52.396;10.696;2023-05-02T09:57:52;11.07;;;2.80;;
29550;SDS011;16488;52.396;10.696;2023-05-02T10:00:18;10.17;;;3.10;;
29550;SDS011;16488;52.396;10.696;2023-05-02T10:02:44;12.32;;;2.63;;
29550;SDS011;16488;52.396;10.696;2023-05-02T10:05:14;13.65;;;3.55;;
29550;SDS011;16488;52.396;10.696;2023-05-02T10:07:41;16.02;;;3.85;;
29550;SDS011;16488;52.396;10.696;2023-05-02T10:10:10;12.00;;;3.35;;
29550;SDS011;16488;52.396;10.696;2023-05-02T10:12:41;15.55;;;4.13;;
29550;SDS011;16488;52.396;10.696;2023-05-02T10:15:08;7.13;;;3.20;;
29550;SDS011;16488;52.396;10.696;2023-05-02T10:17:43;17.08;;;4.20;;
29550;SDS011;16488;52.396;10.696;2023-05-02T10:22:45;13.07;;;3.83;;
29550;SDS011;16488;52.396;10.696;2023-05-02T10:25:13;14.18;;;3.65;;
29550;SDS011;16488;52.396;10.696;2023-05-02T10:27:39;12.80;;;3.13;;
29550;SDS011;16488;52.396;10.696;2023-05-02T10:30:05;11.48;;;3.35;;
29550;SDS011;16488;52.396;10.696;2023-05-02T10:32:32;14.00;;;3.67;;
29550;SDS011;16488;52.396;10.696;2023-05-02T10:37:28;12.32;;;3.72;;
29550;SDS011;16488;52.396;10.696;2023-05-02T10:39:57;9.80;;;3.47;;
29550;SDS011;16488;52.396;10.696;2023-05-02T10:42:24;14.23;;;3.55;;
29550;SDS011;16488;52.396;10.696;2023-05-02T10:44:50;15.05;;;3.47;;
29550;SDS011;16488;52.396;10.696;2023-05-02T10:47:23;26.10;;;4.45;;
29550;SDS011;16488;52.396;10.696;2023-05-02T10:49:55;13.82;;;3.80;;
29550;SDS011;16488;52.396;10.696;2023-05-02T10:52:26;14.90;;;3.35;;
29550;SDS011;16488;52.396;10.696;2023-05-02T10:55:12;16.08;;;3.70;;
29550;SDS011;16488;52.396;10.696;2023-05-02T11:00:43;10.13;;;2.95;;
29550;SDS011;16488;52.396;10.696;2023-05-02T11:03:09;19.45;;;3.65;;
29550;SDS011;16488;52.396;10.696;2023-05-02T11:05:36;14.88;;;3.40;;
29550;SDS011;16488;52.396;10.696;2023-05-02T11:08:31;11.65;;;3.50;;
29550;SDS011;16488;52.396;10.696;2023-05-02T11:10:57;11.70;;;3.42;;
29550;SDS011;16488;52.396;10.696;2023-05-02T11:14:01;10.38;;;3.40;;
29550;SDS011;16488;52.396;10.696;2023-05-02T11:16:27;11.95;;;3.30;;
29550;SDS011;16488;52.396;10.696;2023-05-02T11:24:44;15.63;;;4.13;;
29550;SDS011;16488;52.396;10.696;2023-05-02T11:30:01;16.05;;;4.72;;
29550;SDS011;16488;52.396;10.696;2023-05-02T11:35:16;14.85;;;3.65;;
29550;SDS011;16488;52.396;10.696;2023-05-02T11:37:51;13.85;;;4.38;;
29550;SDS011;16488;52.396;10.696;2023-05-02T11:40:21;17.25;;;4.03;;
29550;SDS011;16488;52.396;10.696;2023-05-02T11:42:47;15.10;;;3.58;;
29550;SDS011;16488;52.396;10.696;2023-05-02T11:45:13;16.95;;;4.05;;
29550;SDS011;16488;52.396;10.696;2023-05-02T11:50:07;17.08;;;3.80;;
29550;SDS011;16488;52.396;10.696;2023-05-02T11:52:36;14.52;;;3.75;;
29550;SDS011;16488;52.396;10.696;2023-05-02T11:55:06;11.77;;;4.40;;
29550;SDS011;16488;52.396;10.696;2023-05-02T11:57:35;23.33;;;4.50;;
29550;SDS011;16488;52.396;10.696;2023-05-02T12:00:01;10.23;;;3.78;;
29550;SDS011;16488;52.396;10.696;2023-05-02T12:02:37;9.73;;;3.33;;
29550;SDS011;16488;52.396;10.696;2023-05-02T12:05:05;12.80;;;4.10;;
29550;SDS011;16488;52.396;10.696;2023-05-02T12:07:43;9.68;;;3.30;;
29550;SDS011;16488;52.396;10.696;2023-05-02T12:10:10;20.33;;;3.93;;
29550;SDS011;16488;52.396;10.696;2023-05-02T12:12:36;15.30;;;4.03;;
29550;SDS011;16488;52.396;10.696;2023-05-02T12:15:04;18.95;;;3.83;;
29550;SDS011;16488;52.396;10.696;2023-05-02T12:17:31;13.27;;;3.65;;
29550;SDS011;16488;52.396;10.696;2023-05-02T12:19:58;11.27;;;3.97;;
29550;SDS011;16488;52.396;10.696;2023-05-02T12:24:50;13.25;;;3.88;;
29550;SDS011;16488;52.396;10.696;2023-05-02T12:27:17;9.00;;;3.55;;
29550;SDS011;16488;52.396;10.696;2023-05-02T12:29:47;12.32;;;3.63;;
29550;SDS011;16488;52.396;10.696;2023-05-02T12:32:14;7.15;;;4.10;;
29550;SDS011;16488;52.396;10.696;2023-05-02T12:34:40;14.95;;;4.40;;
29550;SDS011;16488;52.396;10.696;2023-05-02T12:37:07;19.98;;;4.57;;
29550;SDS011;16488;52.396;10.696;2023-05-02T12:39:41;14.32;;;3.53;;
29550;SDS011;16488;52.396;10.696;2023-05-02T12:42:07;22.55;;;4.40;;
29550;SDS011;16488;52.396;10.696;2023-05-02T12:44:37;10.93;;;3.72;;
29550;SDS011;16488;52.396;10.696;2023-05-02T12:47:03;17.10;;;3.47;;
29550;SDS011;16488;52.396;10.696;2023-05-02T12:49:29;6.95;;;3.10;;
29550;SDS011;16488;52.396;10.696;2023-05-02T12:51:55;15.25;;;4.47;;
29550;SDS011;16488;52.396;10.696;2023-05-02T12:54:21;9.90;;;3.53;;
29550;SDS011;16488;52.396;10.696;2023-05-02T12:56:47;11.50;;;3.22;;
29550;SDS011;16488;52.396;10.696;2023-05-02T12:59:28;10.25;;;4.00;;
29550;SDS011;16488;52.396;10.696;2023-05-02T13:01:57;10.52;;;4.20;;
29550;SDS011;16488;52.396;10.696;2023-05-02T13:04:37;14.43;;;4.20;;
29550;SDS011;16488;52.396;10.696;2023-05-02T13:07:05;14.82;;;3.70;;
29550;SDS011;16488;52.396;10.696;2023-05-02T13:11:56;16.40;;;3.83;;
29550;SDS011;16488;52.396;10.696;2023-05-02T13:14:23;15.70;;;3.70;;
29550;SDS011;16488;52.396;10.696;2023-05-02T13:19:17;21.25;;;3.20;;
29550;SDS011;16488;52.396;10.696;2023-05-02T13:21:43;13.90;;;3.47;;
29550;SDS011;16488;52.396;10.696;2023-05-02T13:24:09;10.52;;;3.30;;
29550;SDS011;16488;52.396;10.696;2023-05-02T13:26:35;10.43;;;3.13;;
29550;SDS011;16488;52.396;10.696;2023-05-02T13:29:00;12.07;;;3.58;;
29550;SDS011;16488;52.396;10.696;2023-05-02T13:31:26;11.93;;;3.50;;
29550;SDS011;16488;52.396;10.696;2023-05-02T13:33:52;9.43;;;3.30;;
29550;SDS011;16488;52.396;10.696;2023-05-02T13:36:17;13.75;;;4.88;;
29550;SDS011;16488;52.396;10.696;2023-05-02T13:38:43;13.70;;;3.30;;
29550;SDS011;16488;52.396;10.696;2023-05-02T13:41:09;22.90;;;4.35;;
29550;SDS011;16488;52.396;10.696;2023-05-02T13:43:34;10.77;;;3.72;;
29550;SDS011;16488;52.396;10.696;2023-05-02T13:46:00;9.60;;;3.72;;
29550;SDS011;16488;52.396;10.696;2023-05-02T13:48:25;6.43;;;2.90;;
29550;SDS011;16488;52.396;10.696;2023-05-02T13:50:51;12.10;;;3.30;;
29550;SDS011;16488;52.396;10.696;2023-05-02T13:53:17;9.68;;;3.00;;
29550;SDS011;16488;52.396;10.696;2023-05-02T13:55:42;9.15;;;2.88;;
29550;SDS011;16488;52.396;10.696;2023-05-02T13:58:08;11.50;;;3.13;;
29550;SDS011;16488;52.396;10.696;2023-05-02T14:00:34;9.57;;;2.88;;
29550;SDS011;16488;52.396;10.696;2023-05-02T14:03:00;10.95;;;2.97;;
29550;SDS011;16488;52.396;10.696;2023-05-02T14:05:25;10.20;;;3.17;;
29550;SDS011;16488;52.396;10.696;2023-05-02T14:07:51;6.93;;;2.92;;
29550;SDS011;16488;52.396;10.696;2023-05-02T14:10:16;7.87;;;3.07;;
29550;SDS011;16488;52.396;10.696;2023-05-02T14:12:42;12.63;;;3.20;;
29550;SDS011;16488;52.396;10.696;2023-05-02T14:15:08;7.80;;;3.33;;
29550;SDS011;16488;52.396;10.696;2023-05-02T14:17:34;9.70;;;3.70;;
29550;SDS011;16488;52.396;10.696;2023-05-02T14:19:59;6.72;;;3.03;;
29550;SDS011;16488;52.396;10.696;2023-05-02T14:22:25;7.67;;;3.63;;
29550;SDS011;16488;52.396;10.696;2023-05-02T14:24:51;9.73;;;3.30;;
29550;SDS011;16488;52.396;10.696;2023-05-02T14:27:17;9.30;;;3.07;;
29550;SDS011;16488;52.396;10.696;2023-05-02T14:29:43;6.20;;;2.85;;
29550;SDS011;16488;52.396;10.696;2023-05-02T14:32:09;8.63;;;3.45;;
29550;SDS011;16488;52.396;10.696;2023-05-02T14:34:35;8.38;;;2.97;;
29550;SDS011;16488;52.396;10.696;2023-05-02T14:37:00;5.80;;;2.23;;
29550;SDS011;16488;52.396;10.696;2023-05-02T14:39:26;5.93;;;2.45;;
29550;SDS011;16488;52.396;10.696;2023-05-02T14:41:52;7.97;;;3.03;;
29550;SDS011;16488;52.396;10.696;2023-05-02T14:44:17;10.07;;;2.85;;
29550;SDS011;16488;52.396;10.696;2023-05-02T14:46:43;12.00;;;2.83;;
29550;SDS011;16488;52.396;10.696;2023-05-02T14:49:08;5.67;;;2.20;;
29550;SDS011;16488;52.396;10.696;2023-05-02T14:51:37;6.87;;;2.43;;
29550;SDS011;16488;52.396;10.696;2023-05-02T14:54:03;6.70;;;2.30;;
29550;SDS011;16488;52.396;10.696;2023-05-02T14:56:31;6.60;;;1.90;;
29550;SDS011;16488;52.396;10.696;2023-05-02T14:58:57;6.43;;;2.22;;
29550;SDS011;16488;52.396;10.696;2023-05-02T15:01:23;9.48;;;2.50;;
29550;SDS011;16488;52.396;10.696;2023-05-02T15:03:48;3.83;;;2.20;;
29550;SDS011;16488;52.396;10.696;2023-05-02T15:06:15;7.15;;;2.13;;
29550;SDS011;16488;52.396;10.696;2023-05-02T15:08:41;5.30;;;1.70;;
29550;SDS011;16488;52.396;10.696;2023-05-02T15:11:08;5.25;;;1.90;;
29550;SDS011;16488;52.396;10.696;2023-05-02T15:13:35;4.50;;;1.88;;
29550;SDS011;16488;52.396;10.696;2023-05-02T15:16:01;4.45;;;1.95;;
29550;SDS011;16488;52.396;10.696;2023-05-02T15:18:28;6.32;;;2.15;;
29550;SDS011;16488;52.396;10.696;2023-05-02T15:20:53;5.10;;;2.38;;
29550;SDS011;16488;52.396;10.696;2023-05-02T15:23:19;6.17;;;2.27;;
29550;SDS011;16488;52.396;10.696;2023-05-02T15:25:45;3.28;;;1.38;;
29550;SDS011;16488;52.396;10.696;2023-05-02T15:28:11;7.78;;;1.83;;
29550;SDS011;16488;52.396;10.696;2023-05-02T15:30:36;7.95;;;2.22;;